sensor_id;sensor_type;location;lat;lon;timestamp;pressure;altitude;pressure_sealevel;temperature;humidity
11499;BME280;5806;48.748;9.278;2023-12-07T00:01:39;101380.20;;;2.43;94.76
11499;BME280;5806;48.748;9.278;2023-12-07T00:04:06;101381.44;;;2.25;94.37
11499;BME280;5806;48.748;9.278;2023-12-07T00:06:35;101379.70;;;2.36;94.86
11499;BME280;5806;48.748;9.278;2023-12-07T00:09:03;101373.09;;;2.50;94.35
11499;BME280;5806;48.748;9.278;2023-12-07T00:11:31;101376.46;;;2.48;94.06
11499;BME280;5806;48.748;9.278;2023-12-07T00:13:58;101376.52;;;2.32;94.03
11499;BME280;5806;48.748;9.278;2023-12-07T00:16:26;101379.53;;;2.37;94.14
11499;BME280;5806;48.748;9.278;2023-12-07T00:18:53;101374.16;;;2.29;94.41
11499;BME280;5806;48.748;9.278;2023-12-07T00:21:21;101373.84;;;2.20;94.33
11499;BME280;5806;48.748;9.278;2023-12-07T00:23:48;101367.80;;;2.18;94.64
11499;BME280;5806;48.748;9.278;2023-12-07T00:26:16;101371.48;;;2.21;94.43
11499;BME280;5806;48.748;9.278;2023-12-07T00:28:45;101370.66;;;2.17;93.94
11499;BME280;5806;48.748;9.278;2023-12-07T00:31:13;101375.39;;;2.07;94.37
11499;BME280;5806;48.748;9.278;2023-12-07T00:33:40;101378.94;;;2.11;94.04
11499;BME280;5806;48.748;9.278;2023-12-07T00:36:08;101374.19;;;2.17;93.80
11499;BME280;5806;48.748;9.278;2023-12-07T00:38:36;101379.29;;;1.96;93.87
11499;BME280;5806;48.748;9.278;2023-12-07T00:41:03;101376.41;;;2.10;93.67
11499;BME280;5806;48.748;9.278;2023-12-07T00:43:32;101370.34;;;2.00;93.78
11499;BME280;5806;48.748;9.278;2023-12-07T00:46:01;101367.83;;;2.02;93.18
11499;BME280;5806;48.748;9.278;2023-12-07T00:48:28;101374.59;;;1.90;93.46
11499;BME280;5806;48.748;9.278;2023-12-07T00:50:56;101372.55;;;1.92;93.58
11499;BME280;5806;48.748;9.278;2023-12-07T00:53:26;101379.99;;;1.90;93.57
11499;BME280;5806;48.748;9.278;2023-12-07T00:55:53;101382.84;;;1.93;93.58
11499;BME280;5806;48.748;9.278;2023-12-07T00:58:20;101376.77;;;1.87;93.70
11499;BME280;5806;48.748;9.278;2023-12-07T01:00:48;101371.91;;;1.82;93.46
11499;BME280;5806;48.748;9.278;2023-12-07T01:03:15;101385.03;;;1.81;93.36
11499;BME280;5806;48.748;9.278;2023-12-07T01:05:47;101392.80;;;1.68;93.54
11499;BME280;5806;48.748;9.278;2023-12-07T01:08:14;101394.84;;;1.66;94.70
11499;BME280;5806;48.748;9.278;2023-12-07T01:10:43;101395.81;;;1.89;93.85
11499;BME280;5806;48.748;9.278;2023-12-07T01:13:10;101394.46;;;1.93;93.63
11499;BME280;5806;48.748;9.278;2023-12-07T01:15:38;101397.52;;;1.94;93.79
11499;BME280;5806;48.748;9.278;2023-12-07T01:18:05;101390.77;;;1.94;93.97
11499;BME280;5806;48.748;9.278;2023-12-07T01:20:33;101391.59;;;1.95;93.65
11499;BME280;5806;48.748;9.278;2023-12-07T01:23:01;101394.81;;;1.98;93.45
11499;BME280;5806;48.748;9.278;2023-12-07T01:25:29;101393.80;;;1.91;93.98
11499;BME280;5806;48.748;9.278;2023-12-07T01:27:56;101397.00;;;1.87;94.49
11499;BME280;5806;48.748;9.278;2023-12-07T01:30:24;101389.60;;;1.81;94.06
11499;BME280;5806;48.748;9.278;2023-12-07T01:32:51;101399.84;;;2.01;93.57
11499;BME280;5806;48.748;9.278;2023-12-07T01:35:19;101398.17;;;1.96;94.29
11499;BME280;5806;48.748;9.278;2023-12-07T01:37:47;101399.36;;;1.98;94.25
11499;BME280;5806;48.748;9.278;2023-12-07T01:40:14;101400.70;;;2.06;95.00
11499;BME280;5806;48.748;9.278;2023-12-07T01:42:50;101402.36;;;2.15;94.99
11499;BME280;5806;48.748;9.278;2023-12-07T01:45:20;101401.16;;;2.21;94.85
11499;BME280;5806;48.748;9.278;2023-12-07T01:47:49;101403.70;;;2.15;95.87
11499;BME280;5806;48.748;9.278;2023-12-07T01:50:22;101394.56;;;2.28;95.67
11499;BME280;5806;48.748;9.278;2023-12-07T01:52:54;101398.11;;;2.32;95.47
11499;BME280;5806;48.748;9.278;2023-12-07T01:55:22;101391.34;;;2.40;95.41
11499;BME280;5806;48.748;9.278;2023-12-07T01:57:50;101398.40;;;2.45;95.71
11499;BME280;5806;48.748;9.278;2023-12-07T02:00:27;101406.83;;;2.54;95.50
11499;BME280;5806;48.748;9.278;2023-12-07T02:02:54;101401.25;;;2.48;94.98
11499;BME280;5806;48.748;9.278;2023-12-07T02:05:22;101404.18;;;2.38;95.50
11499;BME280;5806;48.748;9.278;2023-12-07T02:07:51;101403.61;;;2.51;95.99
11499;BME280;5806;48.748;9.278;2023-12-07T02:10:19;101405.49;;;2.50;96.22
11499;BME280;5806;48.748;9.278;2023-12-07T02:12:48;101408.49;;;2.59;96.50
11499;BME280;5806;48.748;9.278;2023-12-07T02:15:15;101407.42;;;2.72;96.14
11499;BME280;5806;48.748;9.278;2023-12-07T02:18:11;101405.17;;;2.84;94.68
11499;BME280;5806;48.748;9.278;2023-12-07T02:20:46;101403.58;;;2.63;96.20
11499;BME280;5806;48.748;9.278;2023-12-07T02:23:13;101411.95;;;2.76;96.98
11499;BME280;5806;48.748;9.278;2023-12-07T02:25:53;101425.45;;;2.76;97.37
11499;BME280;5806;48.748;9.278;2023-12-07T02:28:19;101422.27;;;2.76;97.34
11499;BME280;5806;48.748;9.278;2023-12-07T02:30:46;101420.02;;;2.84;97.93
11499;BME280;5806;48.748;9.278;2023-12-07T02:33:14;101430.97;;;2.90;97.99
11499;BME280;5806;48.748;9.278;2023-12-07T02:35:48;101432.47;;;3.01;97.85
11499;BME280;5806;48.748;9.278;2023-12-07T02:38:16;101432.30;;;2.94;98.71
11499;BME280;5806;48.748;9.278;2023-12-07T02:40:46;101433.16;;;2.95;98.08
11499;BME280;5806;48.748;9.278;2023-12-07T02:43:15;101428.93;;;2.96;98.67
11499;BME280;5806;48.748;9.278;2023-12-07T02:45:43;101430.78;;;3.26;98.15
11499;BME280;5806;48.748;9.278;2023-12-07T02:48:10;101431.14;;;3.27;97.95
11499;BME280;5806;48.748;9.278;2023-12-07T02:50:38;101431.31;;;3.26;98.42
11499;BME280;5806;48.748;9.278;2023-12-07T02:53:06;101433.63;;;3.29;97.94
11499;BME280;5806;48.748;9.278;2023-12-07T02:55:33;101430.45;;;3.25;98.82
11499;BME280;5806;48.748;9.278;2023-12-07T02:58:03;101428.20;;;3.33;98.96
11499;BME280;5806;48.748;9.278;2023-12-07T03:00:32;101422.00;;;3.28;99.03
11499;BME280;5806;48.748;9.278;2023-12-07T03:03:00;101417.52;;;3.17;99.60
11499;BME280;5806;48.748;9.278;2023-12-07T03:05:29;101409.81;;;3.32;99.36
11499;BME280;5806;48.748;9.278;2023-12-07T03:07:57;101409.78;;;3.36;99.31
11499;BME280;5806;48.748;9.278;2023-12-07T03:10:24;101409.81;;;3.32;99.43
11499;BME280;5806;48.748;9.278;2023-12-07T03:12:52;101407.28;;;3.31;99.79
11499;BME280;5806;48.748;9.278;2023-12-07T03:15:19;101403.55;;;3.32;99.86
11499;BME280;5806;48.748;9.278;2023-12-07T03:17:49;101405.02;;;3.38;100.00
11499;BME280;5806;48.748;9.278;2023-12-07T03:20:16;101404.02;;;3.39;99.84
11499;BME280;5806;48.748;9.278;2023-12-07T03:22:44;101397.79;;;3.35;99.90
11499;BME280;5806;48.748;9.278;2023-12-07T03:25:16;101398.11;;;3.36;100.00
11499;BME280;5806;48.748;9.278;2023-12-07T03:27:45;101402.97;;;3.44;99.99
11499;BME280;5806;48.748;9.278;2023-12-07T03:30:12;101400.31;;;3.36;99.84
11499;BME280;5806;48.748;9.278;2023-12-07T03:32:40;101388.06;;;3.26;100.00
11499;BME280;5806;48.748;9.278;2023-12-07T03:35:08;101397.67;;;3.28;100.00
11499;BME280;5806;48.748;9.278;2023-12-07T03:37:36;101408.38;;;3.44;99.81
11499;BME280;5806;48.748;9.278;2023-12-07T03:40:04;101405.64;;;3.48;99.54
11499;BME280;5806;48.748;9.278;2023-12-07T03:42:33;101397.73;;;3.43;100.00
11499;BME280;5806;48.748;9.278;2023-12-07T03:45:00;101399.46;;;3.36;100.00
11499;BME280;5806;48.748;9.278;2023-12-07T03:47:28;101396.64;;;3.29;100.00
11499;BME280;5806;48.748;9.278;2023-12-07T03:50:00;101399.20;;;3.49;99.87
11499;BME280;5806;48.748;9.278;2023-12-07T03:52:28;101401.46;;;3.64;99.39
11499;BME280;5806;48.748;9.278;2023-12-07T03:55:00;101401.41;;;3.50;99.43
11499;BME280;5806;48.748;9.278;2023-12-07T03:57:30;101398.53;;;3.51;99.36
11499;BME280;5806;48.748;9.278;2023-12-07T04:00:15;101393.27;;;3.54;99.68
11499;BME280;5806;48.748;9.278;2023-12-07T04:02:42;101396.27;;;3.59;99.87
11499;BME280;5806;48.748;9.278;2023-12-07T04:05:10;101399.85;;;3.55;100.00
11499;BME280;5806;48.748;9.278;2023-12-07T04:07:38;101398.11;;;3.58;100.00
11499;BME280;5806;48.748;9.278;2023-12-07T04:10:06;101401.00;;;3.57;100.00
11499;BME280;5806;48.748;9.278;2023-12-07T04:12:34;101400.73;;;3.48;100.00
11499;BME280;5806;48.748;9.278;2023-12-07T04:15:01;101399.94;;;3.43;100.00
11499;BME280;5806;48.748;9.278;2023-12-07T04:17:29;101397.73;;;3.65;100.00
11499;BME280;5806;48.748;9.278;2023-12-07T04:19:56;101400.26;;;3.67;100.00
11499;BME280;5806;48.748;9.278;2023-12-07T04:22:25;101408.84;;;3.70;100.00
11499;BME280;5806;48.748;9.278;2023-12-07T04:24:53;101401.87;;;3.76;100.00
11499;BME280;5806;48.748;9.278;2023-12-07T04:27:20;101396.48;;;3.72;100.00
11499;BME280;5806;48.748;9.278;2023-12-07T04:29:51;101400.38;;;3.73;100.00
11499;BME280;5806;48.748;9.278;2023-12-07T04:32:18;101403.64;;;3.65;100.00
11499;BME280;5806;48.748;9.278;2023-12-07T04:34:46;101398.41;;;3.67;100.00
11499;BME280;5806;48.748;9.278;2023-12-07T04:37:13;101405.81;;;3.69;100.00
11499;BME280;5806;48.748;9.278;2023-12-07T04:39:41;101409.38;;;3.70;100.00
11499;BME280;5806;48.748;9.278;2023-12-07T04:42:10;101403.58;;;3.50;100.00
11499;BME280;5806;48.748;9.278;2023-12-07T04:44:37;101413.34;;;3.59;100.00
11499;BME280;5806;48.748;9.278;2023-12-07T04:47:08;101415.60;;;3.70;100.00
11499;BME280;5806;48.748;9.278;2023-12-07T04:49:35;101413.28;;;3.67;100.00
11499;BME280;5806;48.748;9.278;2023-12-07T04:52:03;101413.61;;;3.68;100.00
11499;BME280;5806;48.748;9.278;2023-12-07T04:54:30;101412.98;;;3.58;100.00
11499;BME280;5806;48.748;9.278;2023-12-07T04:56:58;101412.96;;;3.62;100.00
11499;BME280;5806;48.748;9.278;2023-12-07T04:59:26;101408.14;;;3.54;100.00
11499;BME280;5806;48.748;9.278;2023-12-07T05:01:53;101415.52;;;3.37;100.00
11499;BME280;5806;48.748;9.278;2023-12-07T05:04:23;101418.79;;;3.25;100.00
11499;BME280;5806;48.748;9.278;2023-12-07T05:06:51;101422.52;;;3.24;100.00
11499;BME280;5806;48.748;9.278;2023-12-07T05:09:18;101436.10;;;3.12;100.00
11499;BME280;5806;48.748;9.278;2023-12-07T05:11:47;101433.37;;;3.16;100.00
11499;BME280;5806;48.748;9.278;2023-12-07T05:14:14;101432.70;;;3.18;100.00
11499;BME280;5806;48.748;9.278;2023-12-07T05:16:42;101429.50;;;3.14;99.67
11499;BME280;5806;48.748;9.278;2023-12-07T05:19:10;101435.69;;;3.27;99.78
11499;BME280;5806;48.748;9.278;2023-12-07T05:21:40;101437.23;;;3.21;98.73
11499;BME280;5806;48.748;9.278;2023-12-07T05:24:10;101444.49;;;3.21;98.73
11499;BME280;5806;48.748;9.278;2023-12-07T05:26:38;101448.09;;;3.13;98.59
11499;BME280;5806;48.748;9.278;2023-12-07T05:29:08;101446.45;;;3.04;98.79
11499;BME280;5806;48.748;9.278;2023-12-07T05:31:36;101446.30;;;3.02;98.75
11499;BME280;5806;48.748;9.278;2023-12-07T05:34:04;101444.41;;;3.06;99.31
11499;BME280;5806;48.748;9.278;2023-12-07T05:36:32;101444.78;;;3.03;98.52
11499;BME280;5806;48.748;9.278;2023-12-07T05:38:59;101440.91;;;2.98;99.00
11499;BME280;5806;48.748;9.278;2023-12-07T05:41:27;101450.20;;;2.99;98.92
11499;BME280;5806;48.748;9.278;2023-12-07T05:43:55;101450.03;;;3.01;98.84
11499;BME280;5806;48.748;9.278;2023-12-07T05:46:22;101450.36;;;3.02;99.08
11499;BME280;5806;48.748;9.278;2023-12-07T05:48:49;101459.27;;;3.06;98.71
11499;BME280;5806;48.748;9.278;2023-12-07T05:51:17;101455.45;;;2.97;98.51
11499;BME280;5806;48.748;9.278;2023-12-07T05:53:46;101451.00;;;3.04;98.22
11499;BME280;5806;48.748;9.278;2023-12-07T05:56:18;101453.30;;;2.84;97.99
11499;BME280;5806;48.748;9.278;2023-12-07T05:58:47;101449.26;;;2.80;98.12
11499;BME280;5806;48.748;9.278;2023-12-07T06:01:16;101446.96;;;2.57;98.25
11499;BME280;5806;48.748;9.278;2023-12-07T06:03:45;101444.70;;;2.85;98.20
11499;BME280;5806;48.748;9.278;2023-12-07T06:06:12;101445.20;;;2.80;97.62
11499;BME280;5806;48.748;9.278;2023-12-07T06:08:40;101447.47;;;2.65;97.62
11499;BME280;5806;48.748;9.278;2023-12-07T06:11:08;101449.16;;;2.62;97.04
11499;BME280;5806;48.748;9.278;2023-12-07T06:13:35;101451.87;;;2.58;97.77
11499;BME280;5806;48.748;9.278;2023-12-07T06:16:02;101450.84;;;2.59;97.71
11499;BME280;5806;48.748;9.278;2023-12-07T06:18:31;101444.97;;;2.51;97.21
11499;BME280;5806;48.748;9.278;2023-12-07T06:20:58;101438.86;;;2.57;97.80
11499;BME280;5806;48.748;9.278;2023-12-07T06:23:26;101446.33;;;2.47;97.91
11499;BME280;5806;48.748;9.278;2023-12-07T06:25:53;101439.55;;;2.59;97.67
11499;BME280;5806;48.748;9.278;2023-12-07T06:28:20;101434.34;;;2.50;97.89
11499;BME280;5806;48.748;9.278;2023-12-07T06:30:48;101427.04;;;2.58;97.32
11499;BME280;5806;48.748;9.278;2023-12-07T06:33:15;101431.46;;;2.55;96.66
11499;BME280;5806;48.748;9.278;2023-12-07T06:35:43;101434.22;;;2.31;97.10
11499;BME280;5806;48.748;9.278;2023-12-07T06:38:12;101425.59;;;2.32;97.38
11499;BME280;5806;48.748;9.278;2023-12-07T06:40:40;101424.45;;;2.30;97.32
11499;BME280;5806;48.748;9.278;2023-12-07T06:43:07;101430.16;;;2.35;97.44
11499;BME280;5806;48.748;9.278;2023-12-07T06:45:35;101429.66;;;2.24;98.06
11499;BME280;5806;48.748;9.278;2023-12-07T06:48:02;101426.25;;;2.46;98.27
11499;BME280;5806;48.748;9.278;2023-12-07T06:50:29;101423.52;;;2.58;97.64
11499;BME280;5806;48.748;9.278;2023-12-07T06:52:57;101420.64;;;2.59;97.73
11499;BME280;5806;48.748;9.278;2023-12-07T06:55:24;101422.69;;;2.49;97.46
11499;BME280;5806;48.748;9.278;2023-12-07T06:57:52;101423.75;;;2.32;97.14
11499;BME280;5806;48.748;9.278;2023-12-07T07:00:19;101424.26;;;2.24;97.34
11499;BME280;5806;48.748;9.278;2023-12-07T07:02:47;101430.01;;;2.29;97.17
11499;BME280;5806;48.748;9.278;2023-12-07T07:05:14;101434.04;;;2.37;96.93
11499;BME280;5806;48.748;9.278;2023-12-07T07:07:42;101427.30;;;2.33;97.23
11499;BME280;5806;48.748;9.278;2023-12-07T07:10:09;101430.02;;;2.21;97.39
11499;BME280;5806;48.748;9.278;2023-12-07T07:12:38;101426.95;;;2.28;97.82
11499;BME280;5806;48.748;9.278;2023-12-07T07:15:07;101420.21;;;2.24;97.23
11499;BME280;5806;48.748;9.278;2023-12-07T07:17:35;101427.33;;;2.21;96.51
11499;BME280;5806;48.748;9.278;2023-12-07T07:20:02;101423.94;;;2.19;96.03
11499;BME280;5806;48.748;9.278;2023-12-07T07:22:30;101428.85;;;2.11;96.04
11499;BME280;5806;48.748;9.278;2023-12-07T07:24:57;101425.30;;;2.11;95.69
11499;BME280;5806;48.748;9.278;2023-12-07T07:27:25;101437.28;;;2.08;95.60
11499;BME280;5806;48.748;9.278;2023-12-07T07:29:52;101435.28;;;2.02;95.51
11499;BME280;5806;48.748;9.278;2023-12-07T07:32:20;101435.61;;;1.99;95.69
11499;BME280;5806;48.748;9.278;2023-12-07T07:34:47;101430.71;;;1.95;95.69
11499;BME280;5806;48.748;9.278;2023-12-07T07:37:14;101433.41;;;1.91;95.38
11499;BME280;5806;48.748;9.278;2023-12-07T07:39:42;101441.01;;;1.91;95.24
11499;BME280;5806;48.748;9.278;2023-12-07T07:42:09;101447.91;;;1.94;95.22
11499;BME280;5806;48.748;9.278;2023-12-07T07:44:37;101441.17;;;1.78;95.36
11499;BME280;5806;48.748;9.278;2023-12-07T07:47:04;101442.69;;;1.72;95.49
11499;BME280;5806;48.748;9.278;2023-12-07T07:49:32;101446.08;;;1.90;94.95
11499;BME280;5806;48.748;9.278;2023-12-07T07:51:59;101437.98;;;1.82;96.15
11499;BME280;5806;48.748;9.278;2023-12-07T07:54:27;101434.59;;;1.72;95.45
11499;BME280;5806;48.748;9.278;2023-12-07T07:56:54;101434.77;;;1.83;95.34
11499;BME280;5806;48.748;9.278;2023-12-07T07:59:22;101433.77;;;1.80;94.95
11499;BME280;5806;48.748;9.278;2023-12-07T08:01:49;101439.83;;;1.82;95.23
11499;BME280;5806;48.748;9.278;2023-12-07T08:04:17;101439.66;;;1.87;95.27
11499;BME280;5806;48.748;9.278;2023-12-07T08:06:44;101438.47;;;1.78;94.90
11499;BME280;5806;48.748;9.278;2023-12-07T08:09:12;101436.96;;;1.75;95.44
11499;BME280;5806;48.748;9.278;2023-12-07T08:11:39;101440.68;;;1.90;95.27
11499;BME280;5806;48.748;9.278;2023-12-07T08:14:07;101440.52;;;1.92;95.24
11499;BME280;5806;48.748;9.278;2023-12-07T08:16:36;101437.62;;;1.97;95.03
11499;BME280;5806;48.748;9.278;2023-12-07T08:19:04;101438.47;;;1.94;95.56
11499;BME280;5806;48.748;9.278;2023-12-07T08:21:31;101435.94;;;1.96;95.34
11499;BME280;5806;48.748;9.278;2023-12-07T08:23:59;101436.43;;;2.00;95.78
11499;BME280;5806;48.748;9.278;2023-12-07T08:26:26;101441.66;;;2.01;95.32
11499;BME280;5806;48.748;9.278;2023-12-07T08:28:54;101434.07;;;2.21;94.40
11499;BME280;5806;48.748;9.278;2023-12-07T08:31:21;101434.91;;;2.09;95.19
11499;BME280;5806;48.748;9.278;2023-12-07T08:33:51;101436.95;;;2.11;95.17
11499;BME280;5806;48.748;9.278;2023-12-07T08:36:19;101440.66;;;2.14;95.15
11499;BME280;5806;48.748;9.278;2023-12-07T08:38:46;101444.70;;;2.22;95.30
11499;BME280;5806;48.748;9.278;2023-12-07T08:41:14;101448.91;;;2.29;95.92
11499;BME280;5806;48.748;9.278;2023-12-07T08:43:41;101449.38;;;2.36;96.23
11499;BME280;5806;48.748;9.278;2023-12-07T08:46:09;101447.72;;;2.31;97.10
11499;BME280;5806;48.748;9.278;2023-12-07T08:48:37;101442.75;;;2.55;96.05
11499;BME280;5806;48.748;9.278;2023-12-07T08:51:05;101443.91;;;2.64;95.84
11499;BME280;5806;48.748;9.278;2023-12-07T08:53:37;101448.28;;;2.65;95.14
11499;BME280;5806;48.748;9.278;2023-12-07T08:56:05;101450.94;;;2.81;94.90
11499;BME280;5806;48.748;9.278;2023-12-07T08:58:32;101452.51;;;2.64;94.90
11499;BME280;5806;48.748;9.278;2023-12-07T09:01:00;101458.77;;;2.64;94.85
11499;BME280;5806;48.748;9.278;2023-12-07T09:03:27;101456.87;;;2.81;94.38
11499;BME280;5806;48.748;9.278;2023-12-07T09:05:56;101460.74;;;2.74;94.55
11499;BME280;5806;48.748;9.278;2023-12-07T09:08:24;101461.91;;;2.80;94.30
11499;BME280;5806;48.748;9.278;2023-12-07T09:10:51;101467.84;;;2.79;93.80
11499;BME280;5806;48.748;9.278;2023-12-07T09:13:19;101464.72;;;2.94;93.77
11499;BME280;5806;48.748;9.278;2023-12-07T09:15:46;101462.73;;;2.88;94.29
11499;BME280;5806;48.748;9.278;2023-12-07T09:18:14;101462.56;;;2.90;93.96
11499;BME280;5806;48.748;9.278;2023-12-07T09:20:41;101462.17;;;3.05;93.50
11499;BME280;5806;48.748;9.278;2023-12-07T09:23:14;101458.63;;;3.00;93.18
11499;BME280;5806;48.748;9.278;2023-12-07T09:25:42;101450.59;;;2.84;93.34
11499;BME280;5806;48.748;9.278;2023-12-07T09:28:10;101453.27;;;2.92;93.25
11499;BME280;5806;48.748;9.278;2023-12-07T09:30:38;101458.46;;;3.02;93.29
11499;BME280;5806;48.748;9.278;2023-12-07T09:33:05;101458.95;;;3.01;93.18
11499;BME280;5806;48.748;9.278;2023-12-07T09:35:32;101456.41;;;3.04;93.28
11499;BME280;5806;48.748;9.278;2023-12-07T09:38:00;101456.17;;;2.83;93.08
11499;BME280;5806;48.748;9.278;2023-12-07T09:40:29;101444.28;;;2.96;94.22
11499;BME280;5806;48.748;9.278;2023-12-07T09:42:56;101446.84;;;2.93;93.62
11499;BME280;5806;48.748;9.278;2023-12-07T09:45:24;101452.28;;;2.81;93.91
11499;BME280;5806;48.748;9.278;2023-12-07T09:47:52;101454.94;;;2.93;94.49
11499;BME280;5806;48.748;9.278;2023-12-07T09:50:22;101459.15;;;2.96;94.49
11499;BME280;5806;48.748;9.278;2023-12-07T09:52:50;101463.92;;;3.24;92.56
11499;BME280;5806;48.748;9.278;2023-12-07T09:55:19;101468.21;;;3.11;92.07
11499;BME280;5806;48.748;9.278;2023-12-07T09:57:49;101453.53;;;3.05;92.60
11499;BME280;5806;48.748;9.278;2023-12-07T10:00:17;101451.86;;;3.04;91.94
11499;BME280;5806;48.748;9.278;2023-12-07T10:02:46;101440.92;;;3.28;92.01
11499;BME280;5806;48.748;9.278;2023-12-07T10:05:14;101443.22;;;3.13;92.11
11499;BME280;5806;48.748;9.278;2023-12-07T10:07:47;101440.19;;;3.34;91.04
11499;BME280;5806;48.748;9.278;2023-12-07T10:10:16;101433.61;;;3.02;92.18
11499;BME280;5806;48.748;9.278;2023-12-07T10:12:51;101427.61;;;2.88;91.91
11499;BME280;5806;48.748;9.278;2023-12-07T10:15:20;101430.37;;;3.11;91.11
11499;BME280;5806;48.748;9.278;2023-12-07T10:17:53;101428.17;;;3.37;89.91
11499;BME280;5806;48.748;9.278;2023-12-07T10:20:21;101429.08;;;2.99;90.61
11499;BME280;5806;48.748;9.278;2023-12-07T10:23:06;101439.89;;;2.99;90.33
11499;BME280;5806;48.748;9.278;2023-12-07T10:25:42;101434.83;;;2.96;89.67
11499;BME280;5806;48.748;9.278;2023-12-07T10:28:10;101431.68;;;3.19;90.27
11499;BME280;5806;48.748;9.278;2023-12-07T10:30:43;101426.08;;;3.24;89.28
11499;BME280;5806;48.748;9.278;2023-12-07T10:33:13;101421.39;;;3.41;88.56
11499;BME280;5806;48.748;9.278;2023-12-07T10:35:44;101423.72;;;3.21;88.65
11499;BME280;5806;48.748;9.278;2023-12-07T10:38:11;101411.09;;;3.18;89.29
11499;BME280;5806;48.748;9.278;2023-12-07T10:40:39;101402.84;;;3.38;88.54
11499;BME280;5806;48.748;9.278;2023-12-07T10:43:08;101392.33;;;3.43;89.28
11499;BME280;5806;48.748;9.278;2023-12-07T10:45:36;101395.17;;;3.45;88.77
11499;BME280;5806;48.748;9.278;2023-12-07T10:48:07;101397.15;;;3.55;88.48
11499;BME280;5806;48.748;9.278;2023-12-07T10:50:46;101398.05;;;3.21;88.24
11499;BME280;5806;48.748;9.278;2023-12-07T10:55:49;101376.98;;;3.39;88.41
11499;BME280;5806;48.748;9.278;2023-12-07T10:58:17;101369.20;;;3.40;87.90
11499;BME280;5806;48.748;9.278;2023-12-07T11:00:47;101358.05;;;3.17;88.19
11499;BME280;5806;48.748;9.278;2023-12-07T11:03:18;101352.37;;;3.49;87.46
11499;BME280;5806;48.748;9.278;2023-12-07T11:05:46;101344.80;;;3.48;86.40
11499;BME280;5806;48.748;9.278;2023-12-07T11:08:21;101333.77;;;3.72;86.62
11499;BME280;5806;48.748;9.278;2023-12-07T11:13:34;101321.03;;;3.58;86.57
11499;BME280;5806;48.748;9.278;2023-12-07T11:16:03;101317.36;;;3.55;86.26
11499;BME280;5806;48.748;9.278;2023-12-07T11:18:31;101313.55;;;3.64;86.02
11499;BME280;5806;48.748;9.278;2023-12-07T11:20:59;101309.47;;;3.50;85.69
11499;BME280;5806;48.748;9.278;2023-12-07T11:23:30;101307.61;;;3.46;86.21
11499;BME280;5806;48.748;9.278;2023-12-07T11:25:58;101303.66;;;3.75;85.51
11499;BME280;5806;48.748;9.278;2023-12-07T11:28:36;101309.84;;;3.80;86.15
11499;BME280;5806;48.748;9.278;2023-12-07T11:31:07;101301.60;;;3.59;84.86
11499;BME280;5806;48.748;9.278;2023-12-07T11:33:39;101299.12;;;3.86;85.25
11499;BME280;5806;48.748;9.278;2023-12-07T11:36:08;101286.48;;;3.83;86.04
11499;BME280;5806;48.748;9.278;2023-12-07T11:41:28;101278.33;;;3.87;84.30
11499;BME280;5806;48.748;9.278;2023-12-07T11:43:57;101281.98;;;3.94;84.84
11499;BME280;5806;48.748;9.278;2023-12-07T11:46:23;101274.17;;;3.80;84.58
11499;BME280;5806;48.748;9.278;2023-12-07T11:48:50;101264.19;;;3.62;84.48
11499;BME280;5806;48.748;9.278;2023-12-07T11:51:18;101260.09;;;3.66;84.61
11499;BME280;5806;48.748;9.278;2023-12-07T11:53:46;101248.65;;;3.79;84.23
11499;BME280;5806;48.748;9.278;2023-12-07T11:56:15;101251.67;;;3.94;84.47
11499;BME280;5806;48.748;9.278;2023-12-07T11:58:46;101246.63;;;3.91;84.20
11499;BME280;5806;48.748;9.278;2023-12-07T12:01:13;101234.94;;;3.95;84.06
11499;BME280;5806;48.748;9.278;2023-12-07T12:03:41;101235.96;;;4.08;83.78
11499;BME280;5806;48.748;9.278;2023-12-07T12:06:10;101237.22;;;4.16;83.44
11499;BME280;5806;48.748;9.278;2023-12-07T12:08:43;101235.62;;;4.22;83.80
11499;BME280;5806;48.748;9.278;2023-12-07T12:11:11;101233.25;;;4.08;83.52
11499;BME280;5806;48.748;9.278;2023-12-07T12:13:38;101232.97;;;4.18;83.79
11499;BME280;5806;48.748;9.278;2023-12-07T12:16:06;101234.02;;;4.13;82.87
11499;BME280;5806;48.748;9.278;2023-12-07T12:18:34;101228.91;;;4.18;83.06
11499;BME280;5806;48.748;9.278;2023-12-07T12:21:02;101234.59;;;4.23;82.86
11499;BME280;5806;48.748;9.278;2023-12-07T12:23:29;101229.20;;;4.33;82.83
11499;BME280;5806;48.748;9.278;2023-12-07T12:25:57;101234.16;;;4.30;81.82
11499;BME280;5806;48.748;9.278;2023-12-07T12:28:25;101233.39;;;4.36;82.13
11499;BME280;5806;48.748;9.278;2023-12-07T12:30:52;101233.08;;;4.35;81.72
11499;BME280;5806;48.748;9.278;2023-12-07T12:33:20;101224.36;;;4.39;81.67
11499;BME280;5806;48.748;9.278;2023-12-07T12:36:04;101223.41;;;4.36;81.56
11499;BME280;5806;48.748;9.278;2023-12-07T12:38:33;101226.75;;;4.38;81.04
11499;BME280;5806;48.748;9.278;2023-12-07T12:41:00;101221.81;;;4.27;80.72
11499;BME280;5806;48.748;9.278;2023-12-07T12:43:31;101218.11;;;4.28;81.53
11499;BME280;5806;48.748;9.278;2023-12-07T12:45:59;101209.52;;;4.35;81.64
11499;BME280;5806;48.748;9.278;2023-12-07T12:48:26;101198.31;;;4.38;81.07
11499;BME280;5806;48.748;9.278;2023-12-07T12:50:55;101193.49;;;4.34;80.80
11499;BME280;5806;48.748;9.278;2023-12-07T12:53:22;101199.87;;;4.47;80.86
11499;BME280;5806;48.748;9.278;2023-12-07T12:55:51;101194.34;;;4.55;80.18
11499;BME280;5806;48.748;9.278;2023-12-07T12:58:19;101188.78;;;4.42;80.12
11499;BME280;5806;48.748;9.278;2023-12-07T13:00:48;101182.45;;;4.35;79.14
11499;BME280;5806;48.748;9.278;2023-12-07T13:03:16;101175.05;;;4.44;79.49
11499;BME280;5806;48.748;9.278;2023-12-07T13:05:43;101173.08;;;4.52;79.74
11499;BME280;5806;48.748;9.278;2023-12-07T13:08:10;101164.48;;;4.59;78.87
11499;BME280;5806;48.748;9.278;2023-12-07T13:10:38;101168.89;;;4.60;78.65
11499;BME280;5806;48.748;9.278;2023-12-07T13:13:06;101173.14;;;4.48;78.41
11499;BME280;5806;48.748;9.278;2023-12-07T13:15:34;101174.14;;;4.47;78.82
11499;BME280;5806;48.748;9.278;2023-12-07T13:18:01;101174.99;;;4.48;78.61
11499;BME280;5806;48.748;9.278;2023-12-07T13:20:28;101164.23;;;4.54;79.10
11499;BME280;5806;48.748;9.278;2023-12-07T13:22:56;101163.06;;;4.53;78.94
11499;BME280;5806;48.748;9.278;2023-12-07T13:25:24;101155.41;;;4.46;79.21